Time;durP1;ratioP1;P1;durP2;ratioP2;P2;SDS_P1;SDS_P2;PMS_P1;PMS_P2;Temp;Humidity;BMP_temperature;BMP_pressure;BME280_temperature;BME280_humidity;BME280_pressure;Samples;Min_cycle;Max_cycle;Signal;HPM_P1;HPM_P2
2022/04/18 00:00:47;;;;;;;10.07;7.43;;;8.00;70.30;;;;;;6211653;23;20025;-87
2022/04/18 00:03:13;;;;;;;8.32;6.78;;;8.00;70.80;;;;;;6187495;23;20019;-86
2022/04/18 00:05:38;;;;;;;7.77;6.63;;;8.20;70.60;;;;;;6137290;23;20462;-88
2022/04/18 00:08:04;;;;;;;14.30;7.23;;;7.90;70.60;;;;;;6187637;23;20039;-87
2022/04/18 00:10:30;;;;;;;11.27;7.57;;;7.80;71.50;;;;;;6186479;23;20063;-87
2022/04/18 00:12:56;;;;;;;12.60;7.63;;;8.80;72.10;;;;;;6187215;23;20016;-87
2022/04/18 00:15:23;;;;;;;8.13;7.33;;;7.80;71.80;;;;;;6162333;23;20384;-87
2022/04/18 00:17:49;;;;;;;10.25;7.38;;;9.00;72.50;;;;;;6187190;23;20017;-87
2022/04/18 00:20:15;;;;;;;13.17;8.20;;;7.70;72.20;;;;;;6186409;23;20083;-87
2022/04/18 00:22:40;;;;;;;13.13;8.73;;;7.60;72.60;;;;;;6161871;23;20020;-87
2022/04/18 00:25:06;;;;;;;8.77;6.28;;;7.80;73.00;;;;;;6162271;23;20381;-87
2022/04/18 00:27:32;;;;;;;12.70;6.95;;;7.60;73.10;;;;;;6186187;23;20013;-87
2022/04/18 00:29:58;;;;;;;8.32;6.50;;;7.60;73.20;;;;;;6187111;23;20071;-86
2022/04/18 00:32:23;;;;;;;13.50;7.83;;;7.80;73.60;;;;;;6186809;23;20437;-87
2022/04/18 00:34:49;;;;;;;13.50;8.00;;;7.50;73.90;;;;;;6186447;23;20387;-86
2022/04/18 00:37:15;;;;;;;12.60;7.67;;;7.80;74.00;;;;;;6187078;23;20322;-86
2022/04/18 00:39:40;;;;;;;9.63;6.83;;;7.40;74.00;;;;;;6186403;23;20028;-87
2022/04/18 00:42:06;;;;;;;10.43;8.10;;;7.40;74.40;;;;;;6162439;23;20013;-86
2022/04/18 00:44:32;;;;;;;9.70;7.40;;;7.40;74.60;;;;;;6137177;23;20126;-86
2022/04/18 00:46:58;;;;;;;9.80;6.67;;;7.30;75.00;;;;;;6162495;23;20447;-86
2022/04/18 00:49:23;;;;;;;11.47;7.20;;;7.30;75.40;;;;;;6186344;23;20016;-86
2022/04/18 00:51:49;;;;;;;12.93;7.20;;;7.20;75.90;;;;;;6186617;23;20020;-86
2022/04/18 00:54:15;;;;;;;11.05;7.00;;;7.20;76.10;;;;;;6187161;23;20042;-88
2022/04/18 00:56:41;;;;;;;10.57;7.43;;;7.20;76.50;;;;;;6188543;23;20453;-87
2022/04/18 00:59:08;;;;;;;11.18;7.90;;;7.10;76.80;;;;;;6213939;23;20021;-86
2022/04/18 01:01:33;;;;;;;9.73;6.97;;;7.30;77.50;;;;;;6213566;23;20444;-86
2022/04/18 01:04:02;;;;;;;15.03;7.87;;;7.00;77.70;;;;;;6188978;23;20056;-86
2022/04/18 01:06:28;;;;;;;11.60;7.80;;;7.00;77.90;;;;;;6164211;23;20314;-86
2022/04/18 01:08:54;;;;;;;8.13;7.32;;;7.40;78.80;;;;;;6188518;23;20017;-86
2022/04/18 01:11:20;;;;;;;9.43;7.13;;;7.00;78.50;;;;;;6188637;23;20048;-86
2022/04/18 01:13:50;;;;;;;12.77;8.15;;;7.00;78.80;;;;;;6163299;23;20027;-88
2022/04/18 01:16:16;;;;;;;12.98;7.28;;;6.90;78.90;;;;;;6213878;23;20392;-86
2022/04/18 01:19:18;;;;;;;13.80;9.00;;;6.90;79.30;;;;;;6188143;23;20048;-87
2022/04/18 01:21:43;;;;;;;11.20;7.45;;;6.90;80.70;;;;;;6212803;23;20444;-86
2022/04/18 01:29:39;;;;;;;14.85;7.72;;;6.90;80.30;;;;;;6213014;23;20075;-87
2022/04/18 01:32:05;;;;;;;10.13;6.50;;;6.80;80.40;;;;;;6163927;23;20017;-86
2022/04/18 01:34:33;;;;;;;15.07;7.15;;;6.80;81.00;;;;;;6163679;23;20021;-86
2022/04/18 01:36:59;;;;;;;15.73;6.72;;;6.80;81.20;;;;;;6213608;23;20017;-86
2022/04/18 01:39:25;;;;;;;12.65;7.18;;;6.80;81.30;;;;;;6163627;23;20032;-86
2022/04/18 01:41:50;;;;;;;10.10;6.80;;;7.30;81.80;;;;;;6138638;23;20017;-86
2022/04/18 01:44:16;;;;;;;10.75;6.88;;;6.70;81.60;;;;;;6188628;23;20437;-86
2022/04/18 01:46:44;;;;;;;8.83;6.70;;;6.70;81.90;;;;;;6213042;23;20345;-86
2022/04/18 01:49:10;;;;;;;10.82;7.00;;;7.10;83.10;;;;;;6213082;23;20519;-86
2022/04/18 01:51:36;;;;;;;8.55;6.88;;;6.70;82.80;;;;;;6137802;23;20060;-87
2022/04/18 01:54:01;;;;;;;11.23;6.33;;;6.70;83.00;;;;;;6163692;23;20012;-86
2022/04/18 01:56:27;;;;;;;8.93;7.15;;;6.70;83.30;;;;;;6188317;23;20075;-86
2022/04/18 01:58:53;;;;;;;13.18;7.10;;;7.50;84.00;;;;;;6163604;23;20013;-87
2022/04/18 02:01:19;;;;;;;12.95;6.53;;;7.40;84.60;;;;;;6213140;23;20024;-88
2022/04/18 02:03:45;;;;;;;8.10;6.85;;;7.80;84.40;;;;;;6212947;23;20017;-86
2022/04/18 02:06:11;;;;;;;6.60;5.47;;;6.60;84.40;;;;;;6187983;23;20021;-86
2022/04/18 02:08:37;;;;;;;8.77;7.33;;;7.70;84.80;;;;;;6188155;23;20048;-88
2022/04/18 02:11:04;;;;;;;11.45;6.25;;;6.60;83.90;;;;;;6187737;23;20449;-86
2022/04/18 02:13:30;;;;;;;8.27;6.45;;;6.90;85.00;;;;;;6213174;23;20016;-86
2022/04/18 02:15:58;;;;;;;9.93;6.38;;;7.50;84.60;;;;;;6187379;23;20024;-85
2022/04/18 02:18:24;;;;;;;10.93;7.13;;;6.50;84.00;;;;;;6213211;23;20019;-86
2022/04/18 02:20:50;;;;;;;11.82;5.93;;;6.90;84.30;;;;;;6187836;23;20013;-86
2022/04/18 02:23:15;;;;;;;8.82;5.82;;;6.50;84.00;;;;;;6187775;23;20392;-86
2022/04/18 02:25:41;;;;;;;9.70;5.82;;;6.50;84.20;;;;;;6138278;23;20106;-87
2022/04/18 02:28:07;;;;;;;14.73;6.33;;;6.50;84.50;;;;;;6188170;23;20075;-86
2022/04/18 02:30:33;;;;;;;11.07;6.53;;;7.60;85.10;;;;;;6163299;23;20019;-86
2022/04/18 02:32:59;;;;;;;7.70;5.47;;;6.50;84.60;;;;;;6188758;23;20420;-86
2022/04/18 02:35:26;;;;;;;8.38;6.45;;;6.50;84.70;;;;;;6164118;23;20120;-86
2022/04/18 02:37:53;;;;;;;7.88;5.90;;;6.80;85.50;;;;;;6213095;23;20074;-86
2022/04/18 02:40:20;;;;;;;10.20;6.93;;;7.80;85.80;;;;;;6187592;23;20013;-86
2022/04/18 02:42:46;;;;;;;9.45;5.35;;;7.20;85.70;;;;;;6187723;23;20103;-86
2022/04/18 02:45:14;;;;;;;7.60;5.70;;;6.30;85.40;;;;;;6212939;23;20023;-86
2022/04/18 02:47:40;;;;;;;10.48;6.32;;;6.30;86.40;;;;;;6212994;23;20013;-86
2022/04/18 02:50:07;;;;;;;8.50;6.15;;;7.40;87.30;;;;;;6186660;23;20024;-86
2022/04/18 02:52:33;;;;;;;;;;;6.40;86.70;;;;;;6139236;23;20071;-86
2022/04/18 02:54:59;;;;;;;9.25;6.13;;;6.30;89.00;;;;;;6187303;23;19915;-86
2022/04/18 02:57:25;;;;;;;6.90;6.05;;;7.40;87.30;;;;;;6187830;23;20039;-86
2022/04/18 02:59:50;;;;;;;9.13;5.38;;;6.20;87.20;;;;;;6187104;23;20027;-86
2022/04/18 03:02:16;;;;;;;10.80;6.22;;;6.20;87.50;;;;;;6188033;23;20020;-86
2022/04/18 03:04:42;;;;;;;12.63;7.37;;;6.50;88.20;;;;;;6212494;23;20066;-86
2022/04/18 03:07:08;;;;;;;11.05;6.43;;;6.40;88.70;;;;;;6187272;23;20452;-86
2022/04/18 03:09:33;;;;;;;9.27;5.67;;;6.40;88.90;;;;;;6187692;23;20021;-86
2022/04/18 03:12:02;;;;;;;11.35;6.90;;;6.00;89.50;;;;;;6187063;23;20020;-86
2022/04/18 03:14:29;;;;;;;12.18;6.45;;;6.10;89.80;;;;;;6188267;23;20020;-86
2022/04/18 03:16:55;;;;;;;;;;;7.00;90.50;;;;;;6187756;23;20318;-86
2022/04/18 03:19:20;;;;;;;6.97;5.63;;;6.80;91.60;;;;;;6212624;23;20399;-87
2022/04/18 03:21:47;;;;;;;13.23;7.05;;;6.00;90.40;;;;;;6187242;23;20074;-88
2022/04/18 03:24:13;;;;;;;10.38;7.45;;;5.90;90.60;;;;;;6212513;23;20025;-86
2022/04/18 03:26:39;;;;;;;7.95;5.85;;;5.90;90.70;;;;;;6187572;23;20059;-85
2022/04/18 03:29:04;;;;;;;8.35;5.97;;;6.00;90.90;;;;;;6186537;23;20020;-86
2022/04/18 03:31:30;;;;;;;16.80;5.77;;;5.90;90.90;;;;;;6162922;23;20027;-86
2022/04/18 03:33:56;;;;;;;9.97;6.43;;;5.80;91.00;;;;;;6186861;23;20012;-85
2022/04/18 03:41:50;;;;;;;11.02;5.35;;;5.80;91.50;;;;;;6212046;23;20464;-86
2022/04/18 03:44:15;;;;;;;6.38;5.30;;;7.10;92.00;;;;;;6187525;23;20024;-86
2022/04/18 03:46:41;;;;;;;10.18;5.80;;;5.80;91.80;;;;;;6162797;23;20047;-86
2022/04/18 03:49:07;;;;;;;8.43;5.10;;;5.70;91.80;;;;;;6186413;23;20012;-85
2022/04/18 03:51:32;;;;;;;10.10;5.18;;;6.40;92.20;;;;;;6162605;23;20024;-86
2022/04/18 03:53:58;;;;;;;9.20;5.97;;;6.30;92.30;;;;;;6186999;23;20044;-86
2022/04/18 03:56:24;;;;;;;11.00;5.90;;;5.70;92.40;;;;;;6187142;23;20020;-86
2022/04/18 03:58:49;;;;;;;9.60;6.00;;;6.70;92.70;;;;;;6137717;23;20059;-86
2022/04/18 04:01:15;;;;;;;8.88;6.60;;;5.70;92.60;;;;;;6211841;23;20031;-85
2022/04/18 04:03:40;;;;;;;7.30;6.00;;;6.50;92.90;;;;;;6212192;23;20023;-85
2022/04/18 04:06:06;;;;;;;6.47;5.40;;;5.70;93.20;;;;;;6162351;23;20070;-85
2022/04/18 04:08:32;;;;;;;9.88;5.20;;;5.60;93.10;;;;;;6187562;23;20020;-86
2022/04/18 04:10:58;;;;;;;7.28;5.18;;;6.10;93.30;;;;;;6211655;23;20023;-85
2022/04/18 04:13:24;;;;;;;6.37;5.00;;;6.20;93.40;;;;;;6187413;23;20024;-85
2022/04/18 04:15:49;;;;;;;8.70;6.60;;;5.60;93.50;;;;;;6186955;23;20017;-86
2022/04/18 04:18:15;;;;;;;7.70;5.20;;;6.80;93.90;;;;;;6186851;23;20059;-85
2022/04/18 04:20:41;;;;;;;11.32;7.07;;;5.50;93.70;;;;;;6186978;23;20016;-86
2022/04/18 04:23:07;;;;;;;9.73;5.45;;;6.20;94.00;;;;;;6187087;23;20016;-86
2022/04/18 04:25:32;;;;;;;9.05;6.00;;;6.00;94.00;;;;;;6162438;23;20017;-85
2022/04/18 04:27:58;;;;;;;7.15;5.25;;;5.50;94.10;;;;;;6186992;23;20016;-85
2022/04/18 04:30:24;;;;;;;10.70;5.82;;;5.40;94.20;;;;;;6163648;23;20100;-86
2022/04/18 04:32:50;;;;;;;8.50;6.10;;;5.40;94.10;;;;;;6189165;23;20020;-86
2022/04/18 04:35:17;;;;;;;12.18;6.30;;;5.40;94.40;;;;;;6188586;23;20017;-85
2022/04/18 04:37:45;;;;;;;9.50;5.85;;;5.40;94.70;;;;;;6214250;23;20444;-85
2022/04/18 04:40:11;;;;;;;6.43;5.70;;;5.40;94.90;;;;;;6213667;23;20383;-86
2022/04/18 04:42:38;;;;;;;6.33;5.73;;;6.50;95.30;;;;;;6189043;23;20017;-85
2022/04/18 04:45:04;;;;;;;9.90;6.00;;;6.20;95.40;;;;;;6188727;23;20036;-86
2022/04/18 04:47:30;;;;;;;7.60;6.28;;;5.40;95.40;;;;;;6213945;23;20104;-86
2022/04/18 04:49:56;;;;;;;8.85;6.20;;;5.40;95.60;;;;;;6213484;23;20055;-86
2022/04/18 04:52:22;;;;;;;8.02;5.95;;;5.40;95.90;;;;;;6188442;23;20104;-85
2022/04/18 04:54:49;;;;;;;6.15;5.05;;;5.60;96.30;;;;;;6213647;23;20051;-85
2022/04/18 04:57:15;;;;;;;;;;;5.40;96.30;;;;;;6164543;23;20028;-85
2022/04/18 04:59:40;;;;;;;6.53;5.18;;;5.40;98.10;;;;;;6164058;23;20252;-86
2022/04/18 05:02:06;;;;;;;7.60;5.65;;;5.40;96.50;;;;;;6188301;23;20016;-86
2022/04/18 05:04:32;;;;;;;11.45;5.45;;;5.40;96.70;;;;;;6189178;23;20016;-85
2022/04/18 05:06:58;;;;;;;9.63;5.75;;;6.40;97.10;;;;;;6188913;23;20017;-85
2022/04/18 05:09:24;;;;;;;8.55;4.80;;;5.50;97.10;;;;;;6188414;23;20019;-85
2022/04/18 05:11:52;;;;;;;7.65;5.60;;;5.50;97.10;;;;;;6138962;23;20016;-85
2022/04/18 05:14:18;;;;;;;11.65;6.00;;;5.60;97.10;;;;;;6213565;23;20017;-85
2022/04/18 05:16:44;;;;;;;5.80;5.05;;;7.00;98.00;;;;;;6188353;23;20047;-86
2022/04/18 05:19:10;;;;;;;7.35;4.90;;;6.70;97.90;;;;;;6163500;23;20441;-85
2022/04/18 05:21:35;;;;;;;5.00;4.40;;;6.50;98.00;;;;;;6164274;23;20131;-85
2022/04/18 05:24:01;;;;;;;6.57;4.85;;;5.70;98.10;;;;;;6213553;23;20024;-88
2022/04/18 05:26:27;;;;;;;5.30;4.80;;;7.10;99.10;;;;;;6188723;23;20017;-86
2022/04/18 05:28:53;;;;;;;8.25;5.22;;;5.90;99.60;;;;;;6188127;23;20279;-86
2022/04/18 05:31:19;;;;;;;8.20;5.27;;;7.50;99.90;;;;;;6213317;23;20345;-86
2022/04/18 05:33:45;;;;;;;6.27;5.13;;;6.50;99.90;;;;;;6163741;23;20021;-86
2022/04/18 05:36:11;;;;;;;6.40;4.88;;;6.90;99.90;;;;;;6163478;23;20025;-85
2022/04/18 05:38:37;;;;;;;7.67;4.97;;;7.20;99.70;;;;;;6188202;23;20023;-86
2022/04/18 05:41:05;;;;;;;9.80;5.33;;;7.60;99.00;;;;;;6213327;23;20020;-86
2022/04/18 05:43:31;;;;;;;8.98;5.07;;;7.80;98.50;;;;;;6164445;23;20086;-85
2022/04/18 05:45:57;;;;;;;8.30;5.80;;;8.10;97.90;;;;;;6138837;23;20020;-86
2022/04/18 05:48:22;;;;;;;8.30;5.10;;;8.10;97.30;;;;;;6138659;23;20103;-86
2022/04/18 05:50:48;;;;;;;6.87;5.57;;;8.70;97.00;;;;;;6187892;23;20013;-86
2022/04/18 05:53:15;;;;;;;5.73;4.40;;;9.00;96.10;;;;;;6187942;23;20020;-86
2022/04/18 05:55:44;;;;;;;4.80;4.10;;;9.30;95.50;;;;;;6188313;23;20096;-86
2022/04/18 05:58:10;;;;;;;7.35;5.38;;;9.50;94.70;;;;;;6187548;23;20027;-87
2022/04/18 06:00:35;;;;;;;5.90;4.37;;;9.70;94.20;;;;;;6188055;23;20020;-86
2022/04/18 06:03:02;;;;;;;5.70;4.30;;;9.90;93.70;;;;;;6163737;23;20028;-86
2022/04/18 06:05:28;;;;;;;6.32;5.07;;;10.10;93.10;;;;;;6162863;23;20016;-86
2022/04/18 06:07:54;;;;;;;5.20;4.32;;;10.20;92.60;;;;;;6163641;23;20025;-86
2022/04/18 06:10:20;;;;;;;5.18;4.30;;;10.40;92.30;;;;;;6212512;23;20019;-86
2022/04/18 06:12:46;;;;;;;6.82;5.07;;;10.60;91.60;;;;;;6188436;23;20024;-86
2022/04/18 06:15:11;;;;;;;8.53;4.90;;;10.70;91.10;;;;;;6187888;23;20047;-86
2022/04/18 06:17:37;;;;;;;5.70;4.33;;;10.70;90.20;;;;;;6188185;23;20453;-87
2022/04/18 06:20:04;;;;;;;7.97;5.00;;;10.60;89.70;;;;;;6188001;23;20044;-87
2022/04/18 06:22:30;;;;;;;7.13;5.47;;;10.90;88.50;;;;;;6213988;23;20027;-87
2022/04/18 06:24:56;;;;;;;6.77;5.00;;;11.10;87.60;;;;;;6139381;23;20103;-87
2022/04/18 06:27:21;;;;;;;5.43;4.50;;;11.20;86.60;;;;;;6162754;23;20254;-87
2022/04/18 06:29:47;;;;;;;5.80;5.00;;;11.30;86.10;;;;;;6166175;23;20017;-86
2022/04/18 06:32:13;;;;;;;7.95;5.05;;;11.40;85.00;;;;;;6187486;23;20314;-87
2022/04/18 06:34:39;;;;;;;7.07;4.72;;;11.60;83.90;;;;;;6187773;23;20028;-87
2022/04/18 06:37:05;;;;;;;5.73;4.60;;;11.70;82.80;;;;;;6213050;23;20048;-87
2022/04/18 06:39:31;;;;;;;6.37;4.33;;;11.90;82.70;;;;;;6215631;23;20038;-87
2022/04/18 06:41:57;;;;;;;7.67;4.63;;;12.00;82.20;;;;;;6187834;23;20031;-87
2022/04/18 06:44:24;;;;;;;8.27;4.70;;;12.30;82.10;;;;;;6163806;23;20040;-96
2022/04/18 06:46:49;;;;;;;6.72;4.57;;;12.50;81.10;;;;;;6219678;23;20016;-87
2022/04/18 06:49:18;;;;;;;5.97;4.57;;;12.70;81.00;;;;;;6213057;23;20052;-91
2022/04/18 06:51:48;;;;;;;7.75;4.22;;;12.60;79.70;;;;;;6187773;23;20021;-92
2022/04/18 06:54:14;;;;;;;4.53;3.83;;;12.80;78.60;;;;;;6213093;23;20405;-92
2022/04/18 06:59:32;;;;;;;6.53;4.80;;;13.10;77.00;;;;;;6212494;23;20016;-91
2022/04/18 07:02:18;;;;;;;5.80;3.90;;;13.10;75.70;;;;;;6188114;23;20016;-90
2022/04/18 07:04:44;;;;;;;7.13;4.68;;;13.40;74.20;;;;;;6188436;23;20040;-90
2022/04/18 07:07:12;;;;;;;6.37;4.43;;;13.60;75.60;;;;;;6166033;23;20433;-96
2022/04/18 07:09:50;;;;;;;8.60;4.78;;;13.80;74.90;;;;;;6191948;23;20017;-96
2022/04/18 07:12:25;;;;;;;6.25;4.35;;;14.00;73.90;;;;;;6166225;23;20447;-89
2022/04/18 07:14:51;;;;;;;7.65;4.40;;;14.10;71.80;;;;;;6188596;23;20023;-85
2022/04/18 07:17:22;;;;;;;6.28;4.60;;;14.20;72.00;;;;;;6213733;23;20468;-94
2022/04/18 07:19:53;;;;;;;5.25;4.60;;;14.10;71.00;;;;;;6189765;23;20139;-92
2022/04/18 07:22:31;;;;;;;8.43;4.50;;;14.10;70.60;;;;;;6189688;23;20017;-89
2022/04/18 07:24:58;;;;;;;6.53;5.05;;;14.20;70.40;;;;;;6187667;23;20328;-94
2022/04/18 07:27:24;;;;;;;5.55;4.38;;;14.40;70.70;;;;;;6212172;23;20008;-88
2022/04/18 07:29:52;;;;;;;7.68;5.45;;;14.70;70.30;;;;;;6162715;23;20536;-89
2022/04/18 07:32:20;;;;;;;5.82;4.35;;;14.90;69.70;;;;;;6211928;23;20059;-90
2022/04/18 07:34:49;;;;;;;5.88;4.85;;;15.00;68.70;;;;;;6164429;23;20017;-90
2022/04/18 07:37:14;;;;;;;5.78;4.10;;;15.00;68.10;;;;;;6187697;23;20453;-89
2022/04/18 07:39:50;;;;;;;5.70;4.82;;;15.00;67.60;;;;;;6187374;23;20012;-88
2022/04/18 07:42:19;;;;;;;6.93;4.68;;;15.20;67.10;;;;;;6163295;23;20440;-89
2022/04/18 07:44:47;;;;;;;9.13;4.95;;;15.30;66.70;;;;;;6187290;23;20470;-89
2022/04/18 07:47:22;;;;;;;6.07;4.55;;;15.50;66.90;;;;;;6188303;23;20148;-92
2022/04/18 07:49:52;;;;;;;5.80;4.75;;;15.60;66.40;;;;;;6211977;23;20013;-89
2022/04/18 07:52:27;;;;;;;8.25;4.68;;;15.70;65.50;;;;;;6163386;23;20433;-88
2022/04/18 07:54:53;;;;;;;6.35;4.10;;;15.20;65.10;;;;;;6187735;23;20020;-89
2022/04/18 07:57:31;;;;;;;;;;;;;;;;;;;;;
2022/04/18 07:59:57;;;;;;;7.18;3.53;;;16.10;64.20;;;;;;6190239;23;20015;-90
2022/04/18 08:02:24;;;;;;;5.78;4.53;;;16.20;63.80;;;;;;6212792;23;20012;-91
2022/04/18 08:04:49;;;;;;;7.70;4.13;;;16.50;63.60;;;;;;6190169;23;20066;-92
2022/04/18 08:07:20;;;;;;;6.15;4.43;;;16.50;63.20;;;;;;6190351;23;20016;-90
2022/04/18 08:09:50;;;;;;;8.90;4.60;;;16.80;63.30;;;;;;6190153;23;20020;-90
2022/04/18 08:12:18;;;;;;;7.63;5.30;;;17.00;62.40;;;;;;6190816;23;20044;-91
2022/04/18 08:14:44;;;;;;;7.80;4.80;;;17.10;61.70;;;;;;6165958;23;20018;-90
2022/04/18 08:17:12;;;;;;;4.68;3.83;;;17.30;61.50;;;;;;6165592;23;20012;-91
2022/04/18 08:19:40;;;;;;;7.88;5.18;;;17.40;60.10;;;;;;6190078;23;20095;-91
2022/04/18 08:22:10;;;;;;;5.93;4.30;;;17.80;59.60;;;;;;6215746;23;20052;-93
2022/04/18 08:24:35;;;;;;;5.70;3.80;;;17.90;59.30;;;;;;6165413;23;20016;-89
2022/04/18 08:27:01;;;;;;;8.02;4.72;;;18.10;58.90;;;;;;6164804;23;20455;-93
2022/04/18 08:29:34;;;;;;;4.18;3.75;;;18.10;58.70;;;;;;6214699;23;20027;-87
2022/04/18 08:32:06;;;;;;;5.53;3.95;;;18.20;58.10;;;;;;6191885;23;20016;-87
2022/04/18 08:34:32;;;;;;;6.07;3.70;;;18.10;57.20;;;;;;6190182;23;20524;-87
2022/04/18 08:36:58;;;;;;;4.45;3.63;;;18.30;57.30;;;;;;6140638;23;20048;-89
2022/04/18 08:39:32;;;;;;;5.03;3.88;;;17.50;56.90;;;;;;6214620;23;20336;-90
2022/04/18 08:41:59;;;;;;;4.85;4.30;;;18.80;55.90;;;;;;6189564;23;20040;-88
2022/04/18 08:44:30;;;;;;;5.35;3.90;;;18.80;55.60;;;;;;6189571;23;20095;-87
2022/04/18 08:47:00;;;;;;;4.38;3.28;;;19.00;54.20;;;;;;6164841;23;20027;-86
2022/04/18 08:54:57;;;;;;;5.53;3.17;;;19.20;52.40;;;;;;6194036;23;20020;-86
2022/04/18 08:57:23;;;;;;;3.22;2.60;;;19.10;52.50;;;;;;6215148;23;20016;-86
2022/04/18 08:59:48;;;;;;;3.60;2.75;;;19.10;52.00;;;;;;6214553;23;20401;-86
2022/04/18 09:02:14;;;;;;;4.03;3.58;;;19.20;51.80;;;;;;6190158;23;20024;-86
2022/04/18 09:04:41;;;;;;;3.20;2.92;;;19.30;51.70;;;;;;6189504;23;20020;-86
2022/04/18 09:07:11;;;;;;;3.15;2.85;;;19.30;51.30;;;;;;6214611;23;20023;-86
2022/04/18 09:09:37;;;;;;;7.05;3.10;;;19.60;51.00;;;;;;6188520;23;20016;-86
2022/04/18 09:12:19;;;;;;;3.47;3.10;;;19.40;51.10;;;;;;6215077;23;20021;-86
2022/04/18 09:14:48;;;;;;;3.67;2.72;;;19.80;51.00;;;;;;6214030;23;20016;-86
2022/04/18 09:17:34;;;;;;;4.25;3.83;;;19.80;50.70;;;;;;6189886;23;20064;-86
2022/04/18 09:20:17;;;;;;;3.97;2.67;;;19.90;49.20;;;;;;6189356;23;20074;-86
2022/04/18 09:22:48;;;;;;;4.22;3.80;;;20.00;48.30;;;;;;6189547;23;20449;-87
2022/04/18 09:25:22;;;;;;;5.78;3.10;;;20.00;49.30;;;;;;6190034;23;20536;-86
2022/04/18 09:27:54;;;;;;;5.50;3.22;;;20.00;48.50;;;;;;6214480;23;20341;-86
2022/04/18 09:30:20;;;;;;;4.15;2.70;;;20.00;48.50;;;;;;6214779;23;20012;-87
2022/04/18 09:33:07;;;;;;;3.25;2.95;;;20.10;48.60;;;;;;6214362;23;20016;-86
2022/04/18 09:35:34;;;;;;;3.35;3.05;;;20.10;47.50;;;;;;6189637;23;20028;-91
2022/04/18 09:38:11;;;;;;;4.68;3.67;;;20.10;48.20;;;;;;6214544;23;20013;-86
2022/04/18 09:40:37;;;;;;;3.17;2.72;;;20.10;48.20;;;;;;6213944;23;20457;-87
2022/04/18 09:43:03;;;;;;;4.80;2.95;;;20.10;48.40;;;;;;6189489;23;20449;-86
2022/04/18 09:45:29;;;;;;;3.88;2.97;;;20.10;48.30;;;;;;6189931;23;20020;-86
2022/04/18 09:47:57;;;;;;;3.35;2.75;;;20.20;48.00;;;;;;6188726;23;20021;-86
2022/04/18 09:53:36;;;;;;;3.03;2.43;;;20.10;48.30;;;;;;6214560;23;20099;-86
2022/04/18 09:56:02;;;;;;;4.43;3.42;;;20.00;47.90;;;;;;6184648;23;20021;-86
2022/04/18 09:58:30;;;;;;;4.70;3.22;;;20.00;48.40;;;;;;6214340;23;20027;-87
2022/04/18 10:00:56;;;;;;;3.20;2.90;;;20.10;48.70;;;;;;6189480;23;20032;-86
2022/04/18 10:03:22;;;;;;;6.35;3.22;;;20.10;48.60;;;;;;6189483;23;20453;-86
2022/04/18 10:05:49;;;;;;;3.97;2.88;;;20.20;48.60;;;;;;6188493;23;20024;-87
2022/04/18 10:08:15;;;;;;;5.13;3.20;;;20.20;48.20;;;;;;6214326;23;20094;-86
2022/04/18 10:10:41;;;;;;;5.40;3.33;;;20.20;48.70;;;;;;6188609;23;20013;-86
2022/04/18 10:13:08;;;;;;;5.50;3.40;;;20.20;48.70;;;;;;6189488;23;20012;-86
2022/04/18 10:15:39;;;;;;;5.53;3.17;;;20.30;48.50;;;;;;6214444;23;20009;-86
2022/04/18 10:18:10;;;;;;;3.50;2.40;;;20.40;48.40;;;;;;6214344;23;20021;-87
2022/04/18 10:20:44;;;;;;;4.68;3.33;;;20.50;47.90;;;;;;6189180;23;20024;-86
2022/04/18 10:23:22;;;;;;;2.78;2.50;;;20.50;47.80;;;;;;6214201;23;20437;-87
2022/04/18 10:26:25;;;;;;;4.65;3.28;;;20.60;47.70;;;;;;6188552;23;20021;-87
2022/04/18 10:28:54;;;;;;;4.25;3.38;;;20.70;45.80;;;;;;6188594;23;20520;-87
2022/04/18 10:31:37;;;;;;;4.43;2.70;;;20.70;47.30;;;;;;6214067;23;20016;-86
2022/04/18 10:34:03;;;;;;;3.03;2.78;;;20.70;48.00;;;;;;6213785;23;20020;-88
2022/04/18 10:36:33;;;;;;;;;;;20.80;47.70;;;;;;6214395;23;20452;-87
2022/04/18 10:39:07;;;;;;;4.50;2.75;;;20.90;45.10;;;;;;6213649;23;19923;-86
2022/04/18 10:41:35;;;;;;;3.72;2.90;;;21.10;47.80;;;;;;6188745;23;20468;-86
2022/04/18 10:44:05;;;;;;;4.45;1.98;;;21.10;47.50;;;;;;6188513;23;20051;-86
2022/04/18 10:46:32;;;;;;;2.33;2.13;;;21.10;46.50;;;;;;6214252;23;20071;-87
2022/04/18 10:48:59;;;;;;;;;;;20.90;45.80;;;;;;6188845;23;20028;-87
2022/04/18 10:51:29;;;;;;;3.30;2.38;;;21.00;45.20;;;;;;6213336;23;20316;-87
2022/04/18 10:54:15;;;;;;;4.28;2.40;;;21.20;45.60;;;;;;6213529;23;20411;-87
2022/04/18 10:57:11;;;;;;;2.67;2.28;;;21.30;44.10;;;;;;6189163;23;20028;-87
2022/04/18 10:59:42;;;;;;;3.53;2.40;;;21.60;42.90;;;;;;6214134;23;20024;-86
2022/04/18 11:02:08;;;;;;;4.10;2.25;;;21.70;44.50;;;;;;6188488;23;20020;-87
2022/04/18 11:04:54;;;;;;;3.35;2.72;;;21.70;43.90;;;;;;6164412;23;20023;-87
2022/04/18 11:07:40;;;;;;;5.97;3.30;;;21.90;43.00;;;;;;6187348;23;20017;-91
2022/04/18 11:10:19;;;;;;;2.60;2.23;;;22.10;43.10;;;;;;6187100;23;20322;-87
2022/04/18 11:12:44;;;;;;;4.15;3.00;;;22.20;43.50;;;;;;6212782;23;20264;-86
2022/04/18 11:15:10;;;;;;;3.88;2.92;;;22.20;43.40;;;;;;6212913;23;20389;-87
2022/04/18 11:17:41;;;;;;;4.10;2.10;;;22.30;42.80;;;;;;6187598;23;20025;-88
2022/04/18 11:20:31;;;;;;;2.45;2.03;;;22.40;42.10;;;;;;6187528;23;20488;-86
2022/04/18 11:24:01;;;;;;;3.08;2.20;;;22.20;40.50;;;;;;6213509;23;20020;-93
2022/04/18 11:26:43;;;;;;;3.10;2.85;;;22.10;41.50;;;;;;6213234;23;20016;-87
2022/04/18 11:29:09;;;;;;;5.57;2.50;;;22.00;42.40;;;;;;6213611;23;20016;-96
2022/04/18 11:31:38;;;;;;;4.97;3.28;;;22.10;42.30;;;;;;6190125;23;20187;-88
2022/04/18 11:34:05;;;;;;;2.30;1.98;;;22.30;41.90;;;;;;6212243;23;20016;-88
2022/04/18 11:36:34;;;;;;;3.25;2.70;;;22.40;41.10;;;;;;6188054;23;20035;-88
2022/04/18 11:39:05;;;;;;;6.45;2.83;;;22.40;40.60;;;;;;6212696;23;20013;-87
2022/04/18 11:41:31;;;;;;;3.65;2.70;;;22.30;40.80;;;;;;6187858;23;20456;-87
2022/04/18 11:43:58;;;;;;;3.33;2.53;;;22.40;40.90;;;;;;6162394;23;20059;-87
2022/04/18 11:46:28;;;;;;;4.88;2.10;;;22.50;41.00;;;;;;6187462;23;20021;-88
2022/04/18 11:48:56;;;;;;;4.72;2.63;;;22.50;41.00;;;;;;6187066;23;20323;-88
2022/04/18 11:51:42;;;;;;;7.55;2.90;;;22.50;41.10;;;;;;6187366;23;20013;-87
2022/04/18 11:54:08;;;;;;;3.27;2.20;;;22.50;39.60;;;;;;6213172;23;20017;-90
2022/04/18 11:56:36;;;;;;;3.70;1.92;;;22.80;40.30;;;;;;6188684;23;20428;-91
2022/04/18 11:59:05;;;;;;;1.92;1.75;;;22.80;40.00;;;;;;6187983;23;20046;-90
2022/04/18 12:07:30;;;;;;;2.42;2.22;;;23.10;39.40;;;;;;6213996;23;20162;-92
2022/04/18 12:09:55;;;;;;;4.82;2.40;;;23.00;39.50;;;;;;6187058;23;20029;-93
2022/04/18 12:12:31;;;;;;;2.42;2.10;;;23.00;39.70;;;;;;6163706;23;20452;-87
2022/04/18 12:15:06;;;;;;;3.67;2.30;;;23.00;38.70;;;;;;6163045;23;20111;-88
2022/04/18 12:17:35;;;;;;;2.92;2.40;;;23.20;39.00;;;;;;6214633;23;20017;-91
2022/04/18 12:20:26;;;;;;;2.60;1.90;;;23.20;39.70;;;;;;6187260;23;20028;-90
2022/04/18 12:23:03;;;;;;;2.38;1.92;;;23.30;39.10;;;;;;6213427;23;20020;-94
2022/04/18 12:25:33;;;;;;;3.13;2.03;;;23.40;39.70;;;;;;6188698;23;20017;-91
2022/04/18 12:28:10;;;;;;;3.03;2.10;;;23.50;38.80;;;;;;6212228;23;20075;-95
2022/04/18 12:30:39;;;;;;;3.35;2.63;;;23.50;37.20;;;;;;6214069;23;20021;-95
2022/04/18 12:33:20;;;;;;;2.63;1.88;;;23.60;38.10;;;;;;6189578;23;20017;-96
2022/04/18 12:36:24;;;;;;;3.33;2.35;;;23.70;37.60;;;;;;6215070;23;20021;-95
2022/04/18 12:39:27;;;;;;;4.20;2.95;;;22.80;37.10;;;;;;6189576;23;20016;-96
2022/04/18 12:42:04;;;;;;;3.67;2.33;;;23.80;37.10;;;;;;6189490;23;20019;-96
2022/04/18 12:44:33;;;;;;;4.50;2.78;;;24.30;37.50;;;;;;6189419;23;20052;-95
2022/04/18 12:47:06;;;;;;;2.33;2.13;;;23.90;37.40;;;;;;6189112;23;20095;-95
2022/04/18 12:49:41;;;;;;;3.15;2.78;;;23.90;37.40;;;;;;6189581;23;20017;-96
2022/04/18 12:52:10;;;;;;;2.67;1.88;;;24.10;37.70;;;;;;6190964;23;20103;-96
2022/04/18 12:54:52;;;;;;;3.13;2.45;;;23.90;37.10;;;;;;6191589;23;20063;-95
2022/04/18 12:57:46;;;;;;;2.72;1.92;;;23.90;37.60;;;;;;6193300;23;20023;-96
2022/04/18 13:00:29;;;;;;;3.25;2.30;;;22.90;37.40;;;;;;6190402;23;20023;-94
2022/04/18 13:02:59;;;;;;;2.80;2.40;;;23.70;38.10;;;;;;6168025;23;20596;-95
2022/04/18 13:05:32;;;;;;;3.60;2.05;;;23.80;37.70;;;;;;6190935;23;20137;-96
2022/04/18 13:08:07;;;;;;;3.63;2.42;;;23.50;37.70;;;;;;6192172;23;20345;-95
2022/04/18 13:10:42;;;;;;;5.97;3.17;;;24.10;39.20;;;;;;6169375;23;20023;-96
2022/04/18 13:13:34;;;;;;;2.55;1.92;;;24.20;37.90;;;;;;6193392;23;20020;-94
2022/04/18 13:16:21;;;;;;;4.75;2.30;;;24.20;36.70;;;;;;6178139;23;20471;-94
2022/04/18 13:18:55;;;;;;;2.92;2.50;;;24.20;36.50;;;;;;6194261;23;20020;-96
2022/04/18 13:21:54;;;;;;;;;;;;;;;;;;;;;
2022/04/18 13:24:25;;;;;;;3.17;2.28;;;24.20;36.80;;;;;;6197780;23;20127;-96
2022/04/18 13:26:53;;;;;;;4.43;2.13;;;24.00;37.90;;;;;;6167664;23;20017;-94
2022/04/18 13:29:21;;;;;;;3.00;2.70;;;23.80;37.50;;;;;;6192543;23;20366;-95
2022/04/18 13:31:57;;;;;;;5.43;2.67;;;23.80;38.10;;;;;;6193236;23;20066;-96